Time;durP1;ratioP1;P1;durP2;ratioP2;P2;SDS_P1;SDS_P2;PMS_P1;PMS_P2;Temp;Humidity;BMP_temperature;BMP_pressure;BME280_temperature;BME280_humidity;BME280_pressure;Samples;Min_cycle;Max_cycle;Signal;HPM_P1;HPM_P2
2023/09/12 00:00:05;;;;;;;9.27;8.47;;;;;;;20.08;100.00;99793.78;4966474;28;20196;-77
2023/09/12 00:02:30;;;;;;;10.13;9.20;;;;;;;20.04;100.00;99791.44;4970104;28;20292;-76
2023/09/12 00:04:56;;;;;;;9.00;8.30;;;;;;;20.00;100.00;99798.66;4965753;28;20199;-76
2023/09/12 00:07:21;;;;;;;10.27;8.73;;;;;;;19.95;100.00;99792.81;4970655;28;20197;-77
2023/09/12 00:09:46;;;;;;;10.90;8.87;;;;;;;19.91;100.00;99793.91;4964052;28;20260;-76
2023/09/12 00:12:14;;;;;;;10.83;9.13;;;;;;;19.88;100.00;99789.66;4967828;28;20208;-77
2023/09/12 00:14:40;;;;;;;12.37;9.87;;;;;;;19.86;100.00;99788.03;4966397;28;20323;-78
2023/09/12 00:17:05;;;;;;;13.07;9.10;;;;;;;19.84;100.00;99789.91;4966115;28;20964;-77
2023/09/12 00:19:30;;;;;;;12.87;9.47;;;;;;;19.85;100.00;99794.22;4966126;28;20651;-77
2023/09/12 00:21:56;;;;;;;10.30;8.97;;;;;;;19.86;100.00;99795.91;4964346;28;20215;-78
2023/09/12 00:24:21;;;;;;;16.03;9.77;;;;;;;19.87;100.00;99789.78;4965282;28;20198;-77
2023/09/12 00:26:46;;;;;;;11.83;9.30;;;;;;;19.83;100.00;99788.22;4965314;28;20204;-77
2023/09/12 00:29:12;;;;;;;10.60;9.03;;;;;;;19.82;100.00;99791.75;4958590;28;20269;-77
2023/09/12 00:31:37;;;;;;;10.23;9.23;;;;;;;19.79;100.00;99783.13;4967961;28;20197;-76
2023/09/12 00:34:02;;;;;;;12.00;8.67;;;;;;;19.78;100.00;99778.81;4957792;28;20209;-77
2023/09/12 00:36:28;;;;;;;9.97;9.07;;;;;;;19.78;100.00;99785.84;4961745;28;20716;-78
2023/09/12 00:38:53;;;;;;;11.00;9.10;;;;;;;19.76;100.00;99780.66;4966693;28;20323;-78
2023/09/12 00:41:18;;;;;;;11.97;9.47;;;;;;;19.75;100.00;99775.50;4959697;28;20838;-76
2023/09/12 00:43:44;;;;;;;10.70;9.60;;;;;;;19.73;100.00;99783.47;4962381;28;20308;-77
2023/09/12 00:46:09;;;;;;;14.33;9.53;;;;;;;19.73;100.00;99780.00;4956591;28;20258;-78
2023/09/12 00:48:37;;;;;;;10.90;8.80;;;;;;;19.71;100.00;99777.47;4960923;28;20201;-77
2023/09/12 00:51:04;;;;;;;14.33;9.40;;;;;;;19.69;100.00;99774.06;4963598;28;20832;-76
2023/09/12 00:53:29;;;;;;;10.93;9.60;;;;;;;19.67;100.00;99773.31;4956959;28;20222;-78
2023/09/12 00:55:59;;;;;;;11.70;9.90;;;;;;;19.63;100.00;99772.63;4954729;28;20237;-77
2023/09/12 00:58:25;;;;;;;10.47;9.47;;;;;;;19.59;100.00;99775.47;4959243;28;20200;-78
2023/09/12 01:00:51;;;;;;;10.30;9.30;;;;;;;19.54;100.00;99774.91;4962636;28;20200;-77
2023/09/12 01:03:16;;;;;;;9.70;8.77;;;;;;;19.48;100.00;99776.09;4960365;28;20219;-79
2023/09/12 01:05:43;;;;;;;10.40;9.33;;;;;;;19.44;100.00;99771.94;4958220;28;20189;-78
2023/09/12 01:08:08;;;;;;;9.50;8.63;;;;;;;19.42;100.00;99774.66;4967674;28;20284;-77
2023/09/12 01:10:34;;;;;;;10.73;8.93;;;;;;;19.41;100.00;99766.84;4961342;28;20205;-76
2023/09/12 01:12:59;;;;;;;9.40;8.60;;;;;;;19.39;100.00;99771.31;4960248;28;20666;-78
2023/09/12 01:15:25;;;;;;;10.43;9.27;;;;;;;19.39;100.00;99773.94;4960258;28;20195;-77
2023/09/12 01:17:50;;;;;;;9.70;8.67;;;;;;;19.39;100.00;99773.94;4972217;28;20687;-77
2023/09/12 01:20:25;;;;;;;12.17;9.33;;;;;;;19.39;100.00;99773.94;4971448;28;20511;-76
2023/09/12 01:23:15;;;;;;;11.57;9.20;;;;;;;19.38;100.00;99774.88;4960121;28;20281;-77
2023/09/12 01:26:12;;;;;;;9.87;8.87;;;;;;;19.38;100.00;99777.50;4960170;28;20300;-78
2023/09/12 01:28:42;;;;;;;10.40;9.40;;;;;;;19.36;100.00;99774.97;4967520;28;20258;-76
2023/09/12 01:31:09;;;;;;;12.03;9.53;;;;;;;19.37;100.00;99779.28;4960727;28;20208;-77
2023/09/12 01:33:34;;;;;;;10.43;9.47;;;;;;;19.36;100.00;99774.16;4962783;28;20648;-78
2023/09/12 01:35:59;;;;;;;9.83;8.83;;;;;;;19.34;100.00;99780.31;4955776;28;20200;-78
2023/09/12 01:38:25;;;;;;;9.97;9.00;;;;;;;19.33;100.00;99780.38;4964353;28;20204;-77
2023/09/12 01:40:52;;;;;;;10.30;9.40;;;;;;;19.31;100.00;99774.38;4963178;28;20666;-76
2023/09/12 01:43:21;;;;;;;10.10;9.03;;;;;;;19.30;100.00;99765.66;4964673;28;20220;-77
2023/09/12 01:45:49;;;;;;;10.27;9.33;;;;;;;19.29;100.00;99763.09;4966443;28;20202;-77
2023/09/12 01:48:20;;;;;;;9.80;8.90;;;;;;;19.30;100.00;99777.91;4965622;28;20684;-78
2023/09/12 01:50:45;;;;;;;9.93;8.97;;;;;;;19.31;100.00;99769.13;4957872;28;20942;-76
2023/09/12 01:53:11;;;;;;;11.60;10.60;;;;;;;19.31;100.00;99775.22;4965540;28;20248;-78
2023/09/12 01:55:37;;;;;;;9.77;8.77;;;;;;;19.32;100.00;99768.19;4966148;28;20196;-77
2023/09/12 01:58:03;;;;;;;9.63;8.70;;;;;;;19.32;100.00;99760.31;4969504;28;20211;-78
2023/09/12 02:00:29;;;;;;;12.10;10.90;;;;;;;19.32;100.00;99760.31;4970115;28;20321;-79
2023/09/12 02:02:54;;;;;;;10.50;9.60;;;;;;;19.30;100.00;99755.16;4967322;28;20224;-78
2023/09/12 02:05:21;;;;;;;10.23;9.43;;;;;;;19.29;100.00;99757.84;4965184;28;20192;-77
2023/09/12 02:07:47;;;;;;;9.70;8.80;;;;;;;19.27;100.00;99757.13;4962994;28;20204;-78
2023/09/12 02:10:13;;;;;;;9.50;8.63;;;;;;;19.23;100.00;99758.19;4973647;28;20284;-77
2023/09/12 02:12:39;;;;;;;10.80;9.30;;;;;;;19.20;100.00;99761.84;4966059;28;20395;-79
2023/09/12 02:15:05;;;;;;;9.83;9.13;;;;;;;19.17;100.00;99772.50;4970119;28;20205;-77
2023/09/12 02:17:30;;;;;;;11.00;9.50;;;;;;;19.13;100.00;99768.34;4969881;28;20202;-77
2023/09/12 02:19:56;;;;;;;10.27;9.37;;;;;;;19.10;100.00;99765.88;4974714;28;20223;-78
2023/09/12 02:22:21;;;;;;;11.27;10.13;;;;;;;19.08;100.00;99760.72;4970804;28;20273;-77
2023/09/12 02:24:47;;;;;;;10.07;9.17;;;;;;;19.07;100.00;99766.88;4976125;28;20193;-78
2023/09/12 02:27:12;;;;;;;10.00;9.10;;;;;;;19.06;100.00;99772.22;4973029;28;20194;-78
2023/09/12 02:29:41;;;;;;;10.13;9.23;;;;;;;19.04;100.00;99769.66;4962822;28;20200;-76
2023/09/12 02:32:07;;;;;;;10.00;9.10;;;;;;;19.05;100.00;99766.13;4975729;28;20223;-78
2023/09/12 02:34:33;;;;;;;9.80;9.00;;;;;;;19.04;100.00;99765.28;4973860;28;20309;-76
2023/09/12 02:36:59;;;;;;;9.90;9.03;;;;;;;19.06;100.00;99782.72;4960463;28;20219;-77
2023/09/12 02:39:24;;;;;;;9.80;9.00;;;;;;;19.04;100.00;99770.53;4967868;28;20200;-78
2023/09/12 02:41:49;;;;;;;10.93;10.03;;;;;;;19.03;100.00;99766.22;4966333;28;20291;-78
2023/09/12 02:44:15;;;;;;;10.23;9.23;;;;;;;19.04;100.00;99770.53;4963106;28;20185;-78
2023/09/12 02:46:40;;;;;;;10.50;9.70;;;;;;;19.04;100.00;99767.03;4961222;28;20560;-78
2023/09/12 02:49:06;;;;;;;10.93;9.93;;;;;;;19.04;100.00;99778.41;4959562;28;20691;-78
2023/09/12 02:51:31;;;;;;;10.60;9.80;;;;;;;19.03;100.00;99778.47;4965540;28;20197;-77
2023/09/12 02:53:56;;;;;;;10.37;9.47;;;;;;;19.02;100.00;99769.75;4967611;28;20223;-77
2023/09/12 02:56:22;;;;;;;9.87;9.13;;;;;;;19.00;100.00;99776.00;4964360;28;20613;-77
2023/09/12 02:58:48;;;;;;;10.57;9.57;;;;;;;18.98;100.00;99775.25;4964628;28;20202;-77
2023/09/12 03:01:18;;;;;;;11.87;10.67;;;;;;;18.94;100.00;99771.91;4961369;28;20219;-78
2023/09/12 03:03:46;;;;;;;11.43;10.40;;;;;;;18.93;100.00;99775.44;4963587;28;20224;-77
2023/09/12 03:06:12;;;;;;;10.47;9.67;;;;;;;18.93;100.00;99771.97;4967224;28;20197;-78
2023/09/12 03:08:37;;;;;;;11.97;10.63;;;;;;;18.93;100.00;99777.22;4967671;28;20556;-76
2023/09/12 03:11:03;;;;;;;10.40;9.60;;;;;;;18.94;100.00;99766.66;4962345;28;20190;-77
2023/09/12 03:13:28;;;;;;;11.03;10.23;;;;;;;18.94;100.00;99760.56;4953620;28;20314;-77
2023/09/12 03:15:53;;;;;;;11.00;10.00;;;;;;;18.97;100.00;99773.56;4954963;28;20257;-76
2023/09/12 03:18:19;;;;;;;10.00;9.20;;;;;;;18.97;100.00;99770.94;4960733;28;20764;-78
2023/09/12 03:20:44;;;;;;;10.90;10.00;;;;;;;18.98;100.00;99760.34;4956867;28;20724;-80
2023/09/12 03:23:09;;;;;;;10.60;9.67;;;;;;;19.02;100.00;99771.50;4961599;28;20302;-77
2023/09/12 03:25:38;;;;;;;10.70;9.80;;;;;;;19.04;100.00;99762.66;4957405;28;20901;-77
2023/09/12 03:28:05;;;;;;;9.97;9.17;;;;;;;19.07;100.00;99755.53;4970824;28;20199;-77
2023/09/12 03:30:32;;;;;;;10.23;9.43;;;;;;;19.09;100.00;99761.56;4958022;28;20207;-79
2023/09/12 03:32:58;;;;;;;10.00;9.20;;;;;;;19.09;100.00;99765.03;4960252;28;20214;-78
2023/09/12 03:35:23;;;;;;;9.97;9.17;;;;;;;19.12;100.00;99769.25;4961877;28;20190;-77
2023/09/12 03:37:48;;;;;;;9.90;8.97;;;;;;;19.13;100.00;99763.94;4957238;28;20344;-78
2023/09/12 03:40:14;;;;;;;9.93;9.23;;;;;;;19.12;100.00;99754.38;4962502;28;20243;-77
2023/09/12 03:42:39;;;;;;;9.60;8.73;;;;;;;19.12;100.00;99746.53;4959687;28;20581;-78
2023/09/12 03:45:05;;;;;;;9.60;8.80;;;;;;;19.10;100.00;99747.50;4963816;28;20193;-77
2023/09/12 03:47:30;;;;;;;9.60;8.87;;;;;;;19.06;100.00;99749.44;4961175;28;20278;-78
2023/09/12 03:49:56;;;;;;;10.20;8.90;;;;;;;19.06;100.00;99752.06;4961568;28;20226;-78
2023/09/12 03:52:21;;;;;;;9.93;9.00;;;;;;;19.08;100.00;99762.47;4961535;28;21191;-77
2023/09/12 03:54:46;;;;;;;9.67;8.97;;;;;;;19.09;100.00;99758.94;4956084;28;20230;-77
2023/09/12 03:57:12;;;;;;;10.00;9.20;;;;;;;19.09;100.00;99761.56;4967577;28;20201;-77
2023/09/12 03:59:37;;;;;;;9.57;8.77;;;;;;;19.08;100.00;99768.59;4963302;28;20678;-78
2023/09/12 04:02:03;;;;;;;9.37;8.67;;;;;;;19.06;100.00;99753.88;4961939;28;20218;-77
2023/09/12 04:04:28;;;;;;;9.63;8.83;;;;;;;19.03;100.00;99760.09;4969643;28;20197;-77
2023/09/12 04:06:54;;;;;;;9.47;8.77;;;;;;;19.00;100.00;99753.25;4970940;28;20193;-77
2023/09/12 04:09:20;;;;;;;9.53;8.73;;;;;;;18.98;100.00;99757.72;4966301;28;20211;-77
2023/09/12 04:11:45;;;;;;;9.90;9.13;;;;;;;18.98;100.00;99759.50;4961831;28;20203;-78
2023/09/12 04:14:11;;;;;;;9.90;9.17;;;;;;;18.96;100.00;99771.84;4966577;28;20227;-78
2023/09/12 04:16:37;;;;;;;10.10;9.40;;;;;;;18.95;100.00;99764.91;4971103;28;20244;-77
2023/09/12 04:19:03;;;;;;;10.90;10.00;;;;;;;18.94;100.00;99773.69;4962567;28;20192;-77
2023/09/12 04:21:28;;;;;;;10.33;9.53;;;;;;;18.91;100.00;99765.97;4954322;28;20278;-76
2023/09/12 04:23:54;;;;;;;11.17;10.10;;;;;;;18.87;100.00;99773.16;4963788;28;20292;-77
2023/09/12 04:26:19;;;;;;;9.37;8.67;;;;;;;18.86;100.00;99777.53;4968559;28;20288;-79
2023/09/12 04:28:47;;;;;;;10.60;9.80;;;;;;;18.84;100.00;99768.06;4964639;28;20225;-79
2023/09/12 04:31:12;;;;;;;9.17;8.57;;;;;;;18.84;100.00;99775.91;4967328;28;20193;-77
2023/09/12 04:33:37;;;;;;;10.20;9.30;;;;;;;18.84;100.00;99774.13;4970534;28;20212;-78
2023/09/12 04:36:03;;;;;;;10.47;9.57;;;;;;;18.85;100.00;99775.00;4964102;28;20197;-79
2023/09/12 04:38:28;;;;;;;9.93;9.13;;;;;;;18.86;100.00;99779.31;4973378;28;20192;-77
2023/09/12 04:40:57;;;;;;;9.33;8.63;;;;;;;18.88;100.00;99780.09;4968145;28;20187;-77
2023/09/12 04:43:23;;;;;;;9.63;8.63;;;;;;;18.92;100.00;99783.38;4968695;28;20204;-77
2023/09/12 04:45:49;;;;;;;9.27;8.50;;;;;;;18.94;100.00;99781.53;4967321;28;20278;-77
2023/09/12 04:48:14;;;;;;;10.07;9.27;;;;;;;18.94;100.00;99782.41;4986047;28;20791;-79
2023/09/12 04:50:43;;;;;;;9.77;9.03;;;;;;;18.94;100.00;99787.66;4972844;28;20677;-78
2023/09/12 04:53:08;;;;;;;9.13;8.33;;;;;;;18.96;100.00;99782.34;4969635;28;20212;-78
2023/09/12 04:55:37;;;;;;;9.20;8.50;;;;;;;18.96;100.00;99788.41;4968173;28;20251;-77
2023/09/12 04:58:04;;;;;;;10.43;9.57;;;;;;;18.95;100.00;99786.72;4982117;28;20192;-77
2023/09/12 05:00:29;;;;;;;9.50;8.60;;;;;;;18.96;100.00;99793.66;4979655;28;20224;-78
2023/09/12 05:02:54;;;;;;;10.37;9.40;;;;;;;18.96;100.00;99798.06;4970144;28;20993;-77
2023/09/12 05:05:20;;;;;;;9.20;8.40;;;;;;;18.94;100.00;99795.50;4965284;28;20749;-78
2023/09/12 05:07:45;;;;;;;11.70;9.00;;;;;;;18.91;100.00;99797.41;4968043;28;20600;-77
2023/09/12 05:10:11;;;;;;;10.73;9.73;;;;;;;18.87;100.00;99804.59;4975777;28;20198;-77
2023/09/12 05:12:36;;;;;;;10.37;9.53;;;;;;;18.81;100.00;99803.16;4961758;28;20214;-78
2023/09/12 05:15:02;;;;;;;10.73;9.87;;;;;;;18.76;100.00;99807.78;4964800;28;20351;-78
2023/09/12 05:17:27;;;;;;;10.40;9.60;;;;;;;18.73;100.00;99802.69;4958349;28;20186;-77
2023/09/12 05:19:53;;;;;;;10.27;9.47;;;;;;;18.71;100.00;99799.28;4970495;28;20220;-77
2023/09/12 05:22:18;;;;;;;10.13;9.33;;;;;;;18.69;100.00;99809.84;4977195;28;20754;-78
2023/09/12 05:24:43;;;;;;;10.00;9.10;;;;;;;18.68;100.00;99805.53;4962202;28;20202;-77
2023/09/12 05:27:10;;;;;;;9.63;8.93;;;;;;;18.69;100.00;99804.63;4963795;28;20197;-79
2023/09/12 05:29:36;;;;;;;10.40;9.53;;;;;;;18.68;100.00;99805.53;4966252;28;20196;-77
2023/09/12 05:32:01;;;;;;;10.60;9.70;;;;;;;18.68;100.00;99807.31;4963717;28;20212;-77
2023/09/12 05:34:26;;;;;;;10.20;9.40;;;;;;;18.68;100.00;99804.69;4959612;28;20211;-77
2023/09/12 05:36:52;;;;;;;9.97;9.07;;;;;;;18.68;100.00;99804.69;4961463;28;20209;-79
2023/09/12 05:39:18;;;;;;;10.90;10.00;;;;;;;18.69;100.00;99811.63;4964956;28;20192;-78
2023/09/12 05:41:43;;;;;;;10.53;9.70;;;;;;;18.72;100.00;99819.31;4963863;28;20252;-79
2023/09/12 05:44:09;;;;;;;10.03;9.23;;;;;;;18.73;100.00;99806.16;4957613;28;20276;-77
2023/09/12 05:46:34;;;;;;;11.30;10.30;;;;;;;18.76;100.00;99796.41;4965058;28;20279;-78
2023/09/12 05:49:00;;;;;;;11.40;10.30;;;;;;;18.81;100.00;99797.03;4967977;28;20195;-78
2023/09/12 05:51:25;;;;;;;10.33;9.43;;;;;;;18.85;100.00;99796.81;4964654;28;20572;-79
2023/09/12 05:53:50;;;;;;;9.73;8.93;;;;;;;18.92;100.00;99799.13;4959697;28;20765;-77
2023/09/12 05:56:16;;;;;;;10.67;9.77;;;;;;;18.99;100.00;99797.88;4974887;28;20183;-79
2023/09/12 05:58:42;;;;;;;10.57;9.67;;;;;;;19.05;100.00;99802.84;4983886;28;20196;-79
2023/09/12 06:01:08;;;;;;;9.97;9.17;;;;;;;19.11;100.00;99801.66;4966423;28;20650;-77
2023/09/12 06:03:34;;;;;;;9.73;8.93;;;;;;;19.16;100.00;99800.47;4967392;28;20320;-79
2023/09/12 06:05:59;;;;;;;9.97;9.03;;;;;;;19.22;100.00;99793.22;4966861;28;20197;-79
2023/09/12 06:08:24;;;;;;;10.10;9.20;;;;;;;19.25;100.00;99790.44;4968396;28;20189;-78
2023/09/12 06:10:53;;;;;;;10.67;9.80;;;;;;;19.31;100.00;99797.97;4961445;28;20192;-79
2023/09/12 06:13:19;;;;;;;10.93;9.50;;;;;;;19.42;100.00;99803.53;4974570;28;20224;-78
2023/09/12 06:15:44;;;;;;;10.57;9.57;;;;;;;19.52;100.00;99811.72;4976143;28;20186;-77
2023/09/12 06:18:09;;;;;;;9.97;9.27;;;;;;;19.63;100.00;99819.88;4964660;28;20189;-78
2023/09/12 06:20:35;;;;;;;10.20;9.30;;;;;;;19.72;100.00;99818.53;4971207;28;20193;-78
2023/09/12 06:23:00;;;;;;;10.60;9.70;;;;;;;19.82;100.00;99818.84;4971934;28;20225;-78
2023/09/12 06:25:26;;;;;;;10.37;9.37;;;;;;;19.90;100.00;99827.19;4967129;28;20240;-78
2023/09/12 06:27:51;;;;;;;10.83;9.73;;;;;;;19.98;100.00;99821.53;4973062;28;20189;-77
2023/09/12 06:30:16;;;;;;;12.70;11.13;;;;;;;20.05;100.00;99822.03;4975951;28;20197;-78
2023/09/12 06:32:42;;;;;;;10.43;9.50;;;;;;;20.12;100.00;99822.53;4979142;28;20303;-78
2023/09/12 06:35:10;;;;;;;9.60;8.83;;;;;;;20.23;100.00;99822.75;4972405;28;20273;-78
2023/09/12 06:37:35;;;;;;;9.80;8.90;;;;;;;20.35;100.00;99826.47;4971599;28;20194;-78
2023/09/12 06:40:00;;;;;;;10.30;9.30;;;;;;;20.46;100.00;99826.69;4974812;28;20658;-78
2023/09/12 06:42:26;;;;;;;9.30;8.50;;;;;;;20.60;100.00;99830.31;4972978;28;20206;-77
2023/09/12 06:44:51;;;;;;;10.30;9.33;;;;;;;20.71;100.00;99820.88;4962093;28;20202;-78
2023/09/12 06:47:16;;;;;;;10.03;9.03;;;;;;;20.84;100.00;99825.41;4960058;28;20723;-79
2023/09/12 06:49:42;;;;;;;10.17;9.37;;;;;;;20.93;100.00;99824.91;4968029;28;20220;-79
2023/09/12 06:52:09;;;;;;;9.67;8.73;;;;;;;21.03;100.00;99833.06;4971361;28;20202;-78
2023/09/12 06:54:34;;;;;;;9.10;8.30;;;;;;;21.23;100.00;99828.38;4972252;28;20216;-78
2023/09/12 06:57:00;;;;;;;9.17;8.47;;;;;;;21.60;100.00;99832.25;4967289;28;20576;-77
2023/09/12 06:59:25;;;;;;;9.70;8.87;;;;;;;22.03;100.00;99833.09;4974933;28;20236;-79
2023/09/12 07:01:51;;;;;;;8.70;7.90;;;;;;;22.34;100.00;99837.25;4967187;28;20210;-77
2023/09/12 07:04:16;;;;;;;9.00;8.10;;;;;;;22.56;100.00;99835.84;4975436;28;20180;-78
2023/09/12 07:06:42;;;;;;;9.50;8.60;;;;;;;22.71;100.00;99841.03;4981199;28;20197;-78
2023/09/12 07:09:08;;;;;;;8.73;7.93;;;;;;;22.88;100.00;99845.19;4981101;28;20630;-77
2023/09/12 07:11:34;;;;;;;8.50;7.87;;;;;;;22.99;100.00;99838.22;4987114;28;20800;-79
2023/09/12 07:13:59;;;;;;;8.23;7.53;;;;;;;23.18;100.00;99838.78;4977824;28;20216;-79
2023/09/12 07:16:25;;;;;;;8.53;7.73;;;;;;;23.34;100.00;99838.56;4975732;28;20342;-77
2023/09/12 07:18:50;;;;;;;8.43;7.70;;;;;;;23.50;100.00;99833.06;4980939;28;20221;-78
2023/09/12 07:21:16;;;;;;;8.27;7.57;;;;;;;23.63;100.00;99831.25;4975216;28;20186;-79
2023/09/12 07:23:41;;;;;;;7.70;7.07;;;;;;;23.88;100.00;99829.47;4978077;28;20202;-80
2023/09/12 07:26:12;;;;;;;7.63;6.83;;;;;;;24.12;100.00;99826.88;4980176;28;20181;-81
2023/09/12 07:28:37;;;;;;;7.30;6.70;;;;;;;24.38;100.00;99831.19;4968060;28;20190;-80
2023/09/12 07:31:02;;;;;;;7.20;6.63;;;;;;;24.63;100.00;99832.84;4988459;28;20189;-80
2023/09/12 07:33:28;;;;;;;8.87;7.97;;;;;;;24.76;100.00;99835.44;4990354;28;20252;-80
2023/09/12 07:35:53;;;;;;;7.43;6.90;;;;;;;24.76;100.00;99835.44;4973057;28;20307;-80
2023/09/12 07:38:20;;;;;;;8.27;7.57;;;;;;;24.84;100.00;99833.06;4977698;28;20190;-79
2023/09/12 07:40:45;;;;;;;9.70;8.33;;;;;;;24.85;100.00;99840.03;4969904;28;20196;-80
2023/09/12 07:43:10;;;;;;;8.40;7.40;;;;;;;24.78;99.98;99839.66;4982648;28;20209;-80
2023/09/12 07:45:39;;;;;;;7.77;7.10;;;;;;;24.73;100.00;99846.28;4972258;28;20186;-79
2023/09/12 07:48:06;;;;;;;7.67;6.97;;;;;;;24.81;99.79;99847.34;4973783;28;20740;-79
2023/09/12 07:50:32;;;;;;;8.47;7.60;;;;;;;24.83;99.73;99843.75;4970916;28;20196;-79
2023/09/12 07:52:57;;;;;;;8.40;7.60;;;;;;;24.80;100.00;99843.03;4974814;28;20204;-79
2023/09/12 07:55:22;;;;;;;8.20;7.60;;;;;;;24.66;100.00;99846.69;5005271;28;20195;-80
2023/09/12 07:57:48;;;;;;;8.40;7.67;;;;;;;24.70;100.00;99854.44;4972542;28;20215;-79
2023/09/12 08:00:13;;;;;;;8.13;7.30;;;;;;;24.80;100.00;99850.97;4973120;28;20193;-79
2023/09/12 08:02:38;;;;;;;8.33;7.57;;;;;;;24.84;100.00;99856.03;4984364;28;20250;-79
2023/09/12 08:05:05;;;;;;;8.17;7.37;;;;;;;24.88;100.00;99862.78;4987487;28;20181;-79
2023/09/12 08:07:30;;;;;;;9.37;8.50;;;;;;;24.87;100.00;99864.59;4969389;28;20187;-78
2023/09/12 08:09:57;;;;;;;10.23;9.23;;;;;;;25.01;100.00;99860.88;4975734;28;20710;-79
2023/09/12 08:12:25;;;;;;;9.57;8.67;;;;;;;24.96;100.00;99868.31;4966663;28;20748;-79
2023/09/12 08:14:51;;;;;;;9.60;8.60;;;;;;;25.28;100.00;99867.66;4980601;28;20213;-78
2023/09/12 08:17:17;;;;;;;9.30;8.50;;;;;;;25.50;100.00;99858.88;4974434;28;20724;-78
2023/09/12 08:19:43;;;;;;;8.37;7.70;;;;;;;25.74;99.98;99871.19;4983014;28;20692;-78
2023/09/12 08:22:09;;;;;;;9.20;8.40;;;;;;;25.92;99.06;99855.59;4976322;28;20668;-78
2023/09/12 08:24:36;;;;;;;9.63;8.67;;;;;;;26.00;98.44;99863.78;4977140;28;20178;-78
2023/09/12 08:27:03;;;;;;;10.07;8.73;;;;;;;26.13;97.46;99865.47;4967228;28;20182;-79
2023/09/12 08:29:29;;;;;;;10.40;9.33;;;;;;;26.24;95.50;99869.91;4960008;28;20240;-78
2023/09/12 08:31:54;;;;;;;10.27;9.13;;;;;;;26.12;95.25;99866.44;4972831;28;20189;-79
2023/09/12 08:34:23;;;;;;;9.07;8.20;;;;;;;25.93;97.18;99867.88;4980822;28;20204;-78
2023/09/12 08:36:48;;;;;;;9.37;8.47;;;;;;;25.89;99.03;99865.63;4981263;28;20652;-78
2023/09/12 08:39:23;;;;;;;9.27;8.23;;;;;;;25.92;98.69;99868.84;4984521;28;20212;-78
2023/09/12 08:41:49;;;;;;;9.53;8.70;;;;;;;25.99;98.28;99869.19;4976714;28;20239;-78
2023/09/12 08:44:15;;;;;;;9.27;8.47;;;;;;;26.11;96.35;99862.94;4975231;28;20329;-78
2023/09/12 08:46:42;;;;;;;9.13;8.33;;;;;;;26.21;95.87;99859.53;4991499;28;20732;-80
2023/09/12 08:49:09;;;;;;;8.83;8.03;;;;;;;26.32;94.88;99860.31;4981072;28;20184;-78
2023/09/12 08:51:35;;;;;;;9.70;8.70;;;;;;;26.27;92.75;99859.88;4982187;28;20178;-78
2023/09/12 08:54:00;;;;;;;9.63;8.73;;;;;;;26.45;92.19;99868.13;4969878;28;20212;-78
2023/09/12 08:56:27;;;;;;;9.20;8.40;;;;;;;26.62;91.73;99871.19;4966436;28;20190;-79
2023/09/12 08:58:54;;;;;;;9.20;8.27;;;;;;;26.67;91.54;99870.81;4977633;28;20198;-78
2023/09/12 09:01:20;;;;;;;9.37;8.57;;;;;;;26.79;90.80;99864.50;4971674;28;20653;-78
2023/09/12 09:03:47;;;;;;;9.10;8.30;;;;;;;26.80;91.06;99866.19;4980741;28;20216;-78
2023/09/12 09:06:14;;;;;;;8.27;7.47;;;;;;;26.59;91.40;99863.47;4974704;28;20277;-78
2023/09/12 09:08:40;;;;;;;8.57;7.70;;;;;;;26.50;92.07;99866.91;4968494;28;20192;-79
2023/09/12 09:11:06;;;;;;;8.60;7.80;;;;;;;26.38;92.58;99861.66;4966839;28;20186;-78
2023/09/12 09:13:34;;;;;;;8.57;7.87;;;;;;;26.39;93.11;99860.69;4977766;28;20216;-78
2023/09/12 09:16:15;;;;;;;8.63;7.93;;;;;;;26.54;93.18;99855.09;4970636;28;20186;-79
2023/09/12 09:18:58;;;;;;;7.73;6.97;;;;;;;26.66;93.18;99854.06;4963576;28;20201;-78
2023/09/12 09:21:30;;;;;;;8.50;7.70;;;;;;;26.88;92.54;99853.13;4970946;28;20248;-80
2023/09/12 09:23:57;;;;;;;8.73;8.03;;;;;;;27.27;89.66;99847.19;4971357;28;20731;-80
2023/09/12 09:26:24;;;;;;;9.90;9.00;;;;;;;27.39;88.82;99840.78;4968419;28;20182;-79
2023/09/12 09:29:10;;;;;;;9.33;8.33;;;;;;;27.59;88.82;99840.91;4972630;28;20233;-79
2023/09/12 09:31:40;;;;;;;8.87;8.17;;;;;;;27.71;88.98;99844.28;4967711;28;20194;-79
2023/09/12 09:34:13;;;;;;;10.03;9.10;;;;;;;27.80;88.60;99837.28;4965850;28;20205;-79
2023/09/12 09:36:50;;;;;;;9.70;8.70;;;;;;;27.91;86.55;99839.00;4974694;28;20340;-79
2023/09/12 09:39:27;;;;;;;9.20;8.40;;;;;;;27.92;86.90;99838.84;4968958;28;20198;-79
2023/09/12 09:41:54;;;;;;;9.37;8.47;;;;;;;27.98;87.36;99837.50;4967215;28;20202;-80
2023/09/12 09:44:22;;;;;;;8.73;8.03;;;;;;;28.03;88.51;99837.91;4967617;28;20201;-79
2023/09/12 09:46:51;;;;;;;9.37;8.50;;;;;;;28.07;89.24;99851.75;4972906;28;20190;-79
2023/09/12 09:49:19;;;;;;;8.53;7.77;;;;;;;28.10;88.86;99854.16;4987298;28;20185;-80
2023/09/12 09:51:45;;;;;;;10.20;8.97;;;;;;;27.96;88.88;99853.56;4985564;28;20217;-78
2023/09/12 09:54:14;;;;;;;9.20;8.30;;;;;;;28.07;87.95;99852.59;4976225;28;21712;-77
2023/09/12 09:56:50;;;;;;;8.93;8.17;;;;;;;28.16;88.02;99852.78;4968362;28;20228;-78
2023/09/12 09:59:17;;;;;;;9.97;8.97;;;;;;;28.16;87.89;99843.00;4971442;28;20970;-78
2023/09/12 10:01:44;;;;;;;9.17;8.27;;;;;;;28.16;88.14;99844.78;4972582;28;20190;-78
2023/09/12 10:04:10;;;;;;;10.23;9.30;;;;;;;28.07;89.16;99838.44;4964702;28;20185;-78
2023/09/12 10:06:37;;;;;;;9.07;8.27;;;;;;;27.94;89.96;99841.41;4968179;28;20183;-78
2023/09/12 10:09:06;;;;;;;8.40;7.70;;;;;;;27.90;90.52;99843.50;4971090;28;20186;-78
2023/09/12 10:11:33;;;;;;;8.30;7.53;;;;;;;27.95;91.11;99841.25;4973124;28;20214;-78
2023/09/12 10:14:02;;;;;;;12.13;9.43;;;;;;;27.91;90.54;99837.16;4970143;28;20289;-78
2023/09/12 10:16:36;;;;;;;8.97;8.17;;;;;;;28.19;88.37;99836.53;4957868;28;20690;-78
2023/09/12 10:19:26;;;;;;;8.63;7.93;;;;;;;28.27;87.24;99831.38;4962043;28;20187;-78
2023/09/12 10:22:02;;;;;;;9.33;8.63;;;;;;;28.32;86.08;99828.28;4968958;28;20700;-78
2023/09/12 10:24:28;;;;;;;8.98;8.18;;;;;;;28.32;86.52;99828.28;4967559;28;20205;-78
2023/09/12 10:26:54;;;;;;;9.50;8.50;;;;;;;28.41;85.55;99827.44;4977828;28;20269;-79
2023/09/12 10:29:21;;;;;;;8.67;8.03;;;;;;;28.41;84.74;99828.28;4969652;28;20204;-78
2023/09/12 10:31:47;;;;;;;9.83;8.93;;;;;;;28.38;85.53;99825.06;4967227;28;20277;-79
2023/09/12 10:34:14;;;;;;;9.37;8.57;;;;;;;28.38;85.72;99825.06;4971364;28;20296;-78
2023/09/12 10:36:40;;;;;;;9.40;8.40;;;;;;;28.42;85.86;99815.81;4976508;28;20200;-79
2023/09/12 10:39:08;;;;;;;8.67;7.80;;;;;;;28.48;85.82;99819.72;4988774;28;20191;-81
2023/09/12 10:41:37;;;;;;;10.07;8.67;;;;;;;28.42;84.66;99814.00;4981026;28;20193;-78
2023/09/12 10:44:09;;;;;;;9.80;8.50;;;;;;;28.36;84.39;99811.91;4975600;28;20202;-79
2023/09/12 10:46:37;;;;;;;8.77;8.07;;;;;;;28.50;83.81;99805.31;4978891;28;20193;-79
2023/09/12 10:49:05;;;;;;;9.23;8.33;;;;;;;28.60;84.36;99800.81;4973977;28;20192;-78
2023/09/12 10:51:31;;;;;;;8.25;7.55;;;;;;;28.72;84.41;99814.81;4978675;28;20193;-79
2023/09/12 10:53:56;;;;;;;8.60;7.87;;;;;;;28.78;83.91;99810.75;4982578;28;20224;-79
2023/09/12 10:56:23;;;;;;;10.30;9.30;;;;;;;28.74;83.66;99804.84;4976693;28;20186;-79
2023/09/12 10:59:04;;;;;;;9.20;8.40;;;;;;;28.77;83.71;99803.75;4973106;28;20182;-79
2023/09/12 11:01:30;;;;;;;9.27;8.48;;;;;;;28.73;84.59;99803.22;4968518;28;20213;-79
2023/09/12 11:03:56;;;;;;;8.80;7.88;;;;;;;28.80;84.74;99799.94;4974491;28;20276;-78
2023/09/12 11:06:31;;;;;;;8.85;8.05;;;;;;;28.77;85.04;99794.91;4970024;28;20256;-78
2023/09/12 11:09:14;;;;;;;9.13;8.23;;;;;;;28.75;84.19;99789.75;4966256;28;20193;-78
2023/09/12 11:11:44;;;;;;;9.67;8.60;;;;;;;28.91;82.59;99786.47;4970253;28;20284;-78
2023/09/12 11:14:10;;;;;;;8.60;7.80;;;;;;;28.95;83.16;99779.88;4968613;28;20662;-79
2023/09/12 11:16:35;;;;;;;8.68;7.88;;;;;;;29.05;84.25;99791.31;4966981;28;20197;-80
2023/09/12 11:19:18;;;;;;;9.90;8.57;;;;;;;28.90;85.24;99780.31;4965353;28;20198;-78
2023/09/12 11:21:47;;;;;;;9.47;8.43;;;;;;;29.04;85.02;99778.16;4978481;28;20184;-80